createdAt,value
2023-04-30T00:00:55.922Z,81.77
2023-04-30T00:03:24.732Z,81.63
2023-04-30T00:05:52.166Z,81.66
2023-04-30T00:08:19.100Z,82.17
2023-04-30T00:10:46.014Z,81.60
2023-04-30T00:13:14.286Z,82.17
2023-04-30T00:15:41.850Z,82.05
2023-04-30T00:18:09.149Z,82.20
2023-04-30T00:20:36.066Z,81.84
2023-04-30T00:23:03.646Z,82.01
2023-04-30T00:25:30.434Z,82.03
2023-04-30T00:27:57.282Z,82.27
2023-04-30T00:30:24.041Z,82.10
2023-04-30T00:32:50.925Z,81.87
2023-04-30T00:35:17.996Z,82.13
2023-04-30T00:37:45.074Z,82.32
2023-04-30T00:40:12.418Z,82.32
2023-04-30T00:42:39.186Z,82.19
2023-04-30T00:45:06.620Z,81.85
2023-04-30T00:47:33.546Z,82.13
2023-04-30T00:50:00.493Z,81.64
2023-04-30T00:52:27.644Z,81.55
2023-04-30T00:54:57.832Z,81.45
2023-04-30T00:57:25.782Z,80.47
2023-04-30T00:59:53.018Z,81.30
2023-04-30T01:02:20.300Z,81.34
2023-04-30T01:04:47.609Z,81.50
2023-04-30T01:07:14.445Z,82.18
2023-04-30T01:09:41.248Z,82.00
2023-04-30T01:12:16.348Z,81.86
2023-04-30T01:14:57.584Z,81.64
2023-04-30T01:17:29.670Z,81.83
2023-04-30T01:19:56.974Z,81.54
2023-04-30T01:22:26.419Z,81.56
2023-04-30T01:25:25.896Z,81.39
2023-04-30T01:27:52.844Z,81.84
2023-04-30T01:30:21.535Z,82.51
2023-04-30T01:32:48.361Z,82.36
2023-04-30T01:35:15.247Z,82.60
2023-04-30T01:38:05.912Z,82.27
2023-04-30T01:40:43.497Z,82.56
2023-04-30T01:43:33.439Z,82.75
2023-04-30T01:46:31.457Z,82.95
2023-04-30T01:49:27.436Z,83.72
2023-04-30T01:52:05.257Z,84.38
2023-04-30T01:54:53.197Z,84.51
2023-04-30T01:57:40.607Z,86.66
2023-04-30T02:00:12.337Z,86.98
2023-04-30T02:02:39.217Z,88.08
2023-04-30T02:05:06.621Z,89.44
2023-04-30T02:07:45.441Z,89.46
2023-04-30T02:10:12.915Z,89.19
2023-04-30T02:12:40.208Z,89.24
2023-04-30T02:15:08.084Z,88.92
2023-04-30T02:17:35.144Z,87.98
2023-04-30T02:20:02.341Z,88.28
2023-04-30T02:22:29.337Z,87.56
2023-04-30T02:24:56.229Z,86.87
2023-04-30T02:27:24.969Z,86.86
2023-04-30T02:29:52.244Z,87.19
2023-04-30T02:32:19.667Z,86.18
2023-04-30T02:34:46.442Z,85.54
2023-04-30T02:37:13.321Z,84.83
2023-04-30T02:39:40.087Z,84.71
2023-04-30T02:42:07.673Z,84.66
2023-04-30T02:44:35.151Z,84.04
2023-04-30T02:47:02.749Z,84.71
2023-04-30T02:49:30.155Z,84.67
2023-04-30T02:51:56.907Z,85.14
2023-04-30T02:54:23.723Z,85.96
2023-04-30T02:56:50.887Z,86.10
2023-04-30T02:59:17.626Z,85.92
2023-04-30T03:01:44.505Z,85.95
2023-04-30T03:04:11.323Z,86.81
2023-04-30T03:06:38.252Z,87.12
2023-04-30T03:09:05.180Z,87.66
2023-04-30T03:11:32.054Z,89.41
2023-04-30T03:13:58.995Z,89.27
2023-04-30T03:16:25.942Z,88.65
2023-04-30T03:18:52.736Z,89.96
2023-04-30T03:21:19.588Z,89.92
2023-04-30T03:23:46.513Z,89.34
2023-04-30T03:26:13.337Z,89.96
2023-04-30T03:28:40.094Z,91.30
2023-04-30T03:31:06.981Z,91.19
2023-04-30T03:33:34.422Z,92.56
2023-04-30T03:36:01.392Z,93.75
2023-04-30T03:38:28.147Z,94.26
2023-04-30T03:40:54.901Z,93.27
2023-04-30T03:43:22.335Z,94.19
2023-04-30T03:45:49.197Z,96.06
2023-04-30T03:48:16.025Z,95.40
2023-04-30T03:50:42.890Z,91.48
2023-04-30T03:53:09.724Z,92.34
2023-04-30T03:55:36.599Z,91.38
2023-04-30T03:58:03.833Z,92.20
2023-04-30T04:00:31.392Z,92.53
2023-04-30T04:02:59.730Z,92.64
2023-04-30T04:05:26.985Z,92.48
2023-04-30T04:07:53.756Z,90.87
2023-04-30T04:10:20.800Z,89.19
2023-04-30T04:12:47.650Z,88.73
2023-04-30T04:15:14.565Z,88.13
2023-04-30T04:17:41.515Z,87.62
2023-04-30T04:20:08.994Z,87.51
2023-04-30T04:22:36.056Z,87.36
2023-04-30T04:25:02.862Z,87.25
2023-04-30T04:27:29.728Z,87.19
2023-04-30T04:29:57.256Z,86.84
2023-04-30T04:32:24.917Z,86.85
2023-04-30T04:34:54.494Z,86.34
2023-04-30T04:37:21.311Z,86.37
2023-04-30T04:39:48.156Z,86.73
2023-04-30T04:42:16.834Z,85.69
2023-04-30T04:44:44.173Z,85.95
2023-04-30T04:47:12.904Z,85.60
2023-04-30T04:49:39.778Z,85.29
2023-04-30T04:52:06.729Z,85.17
2023-04-30T04:54:34.002Z,84.86
2023-04-30T04:57:00.746Z,85.15
2023-04-30T04:59:27.531Z,84.88
2023-04-30T05:01:54.348Z,84.50
2023-04-30T05:04:21.139Z,84.09
2023-04-30T05:06:47.995Z,84.07
2023-04-30T05:09:14.920Z,83.68
2023-04-30T05:11:41.820Z,82.92
2023-04-30T05:14:08.664Z,82.44
2023-04-30T05:16:35.473Z,81.82
2023-04-30T05:19:02.315Z,82.04
2023-04-30T05:21:29.962Z,82.00
2023-04-30T05:23:56.819Z,81.02
2023-04-30T05:26:24.679Z,81.71
2023-04-30T05:28:52.639Z,80.36
2023-04-30T05:31:21.068Z,80.46
2023-04-30T05:33:48.263Z,79.90
2023-04-30T05:36:15.207Z,79.25
2023-04-30T05:38:42.303Z,78.46
2023-04-30T05:41:12.770Z,78.80
2023-04-30T05:43:39.565Z,78.67
2023-04-30T05:46:06.787Z,79.19
2023-04-30T05:48:33.644Z,79.10
2023-04-30T05:51:00.467Z,79.13
2023-04-30T05:53:27.385Z,79.34
2023-04-30T05:55:54.142Z,78.48
2023-04-30T05:58:21.014Z,78.84
2023-04-30T06:00:52.747Z,79.37
2023-04-30T06:03:20.234Z,79.70
2023-04-30T06:05:47.868Z,78.64
2023-04-30T06:08:14.854Z,77.99
2023-04-30T06:10:42.728Z,78.39
2023-04-30T06:13:09.588Z,79.15
2023-04-30T06:15:36.428Z,79.35
2023-04-30T06:18:03.331Z,77.99
2023-04-30T06:20:30.260Z,76.35
2023-04-30T06:22:57.180Z,75.80
2023-04-30T06:25:23.968Z,75.41
2023-04-30T06:27:52.883Z,74.48
2023-04-30T06:30:20.210Z,74.05
2023-04-30T06:32:47.203Z,73.06
2023-04-30T06:35:15.131Z,73.73
2023-04-30T06:37:42.034Z,73.02
2023-04-30T06:40:09.207Z,73.51
2023-04-30T06:42:36.291Z,73.20
2023-04-30T06:45:03.844Z,72.89
2023-04-30T06:47:34.891Z,72.18
2023-04-30T06:50:02.428Z,72.07
2023-04-30T06:52:31.445Z,71.99
2023-04-30T06:54:58.219Z,70.81
2023-04-30T06:57:25.945Z,71.61
2023-04-30T06:59:53.102Z,70.87
2023-04-30T07:02:21.932Z,70.45
2023-04-30T07:04:49.640Z,70.46
2023-04-30T07:07:16.434Z,68.38
2023-04-30T07:09:43.285Z,67.96
2023-04-30T07:12:12.249Z,68.06
2023-04-30T07:14:39.051Z,67.71
2023-04-30T07:17:06.307Z,66.34
2023-04-30T07:19:33.102Z,67.28
2023-04-30T07:21:59.900Z,64.91
2023-04-30T07:24:26.636Z,64.51
2023-04-30T07:26:53.374Z,64.43
2023-04-30T07:29:20.388Z,63.79
2023-04-30T07:31:47.160Z,64.34
2023-04-30T07:34:14.223Z,64.30
2023-04-30T07:36:41.380Z,62.64
2023-04-30T07:39:08.325Z,62.45
2023-04-30T07:41:35.148Z,62.32
2023-04-30T07:44:02.077Z,62.25
2023-04-30T07:46:29.207Z,61.35
2023-04-30T07:48:56.043Z,61.44
2023-04-30T07:51:23.388Z,59.13
2023-04-30T07:53:50.199Z,58.85
2023-04-30T07:56:16.983Z,58.93
2023-04-30T07:58:44.122Z,57.11
2023-04-30T08:01:11.051Z,56.38
2023-04-30T08:03:38.065Z,56.73
2023-04-30T08:06:06.160Z,56.06
2023-04-30T08:08:32.951Z,53.54
2023-04-30T08:10:59.970Z,54.20
2023-04-30T08:13:26.678Z,54.11
2023-04-30T08:15:53.482Z,53.16
2023-04-30T08:18:20.412Z,53.13
2023-04-30T08:20:47.296Z,53.57
2023-04-30T08:23:20.670Z,52.55
2023-04-30T08:25:47.465Z,50.05
2023-04-30T08:28:14.220Z,50.48
2023-04-30T08:30:40.945Z,48.78
2023-04-30T08:33:07.889Z,47.09
2023-04-30T08:35:34.760Z,47.22
2023-04-30T08:38:01.605Z,47.36
2023-04-30T08:40:43.437Z,44.50
2023-04-30T08:43:15.920Z,43.82
2023-04-30T08:45:43.085Z,45.63
2023-04-30T08:48:15.344Z,45.81
2023-04-30T08:50:42.288Z,44.39
2023-04-30T08:53:11.225Z,44.48
2023-04-30T08:55:40.642Z,46.38
2023-04-30T08:58:10.548Z,42.81
2023-04-30T09:00:39.037Z,44.67
2023-04-30T09:03:07.907Z,43.44
2023-04-30T09:05:34.858Z,44.26
2023-04-30T09:08:03.991Z,44.42
2023-04-30T09:10:35.765Z,43.72
2023-04-30T09:13:05.098Z,42.96
2023-04-30T09:15:33.961Z,43.07
2023-04-30T09:18:18.732Z,42.69
2023-04-30T09:21:02.078Z,43.82
2023-04-30T09:23:29.629Z,43.96
2023-04-30T09:25:57.474Z,44.01
2023-04-30T09:28:26.811Z,43.25
2023-04-30T09:30:54.155Z,42.73
2023-04-30T09:33:21.090Z,41.34
2023-04-30T09:35:48.250Z,41.78
2023-04-30T09:38:32.284Z,40.69
2023-04-30T09:41:01.612Z,41.05
2023-04-30T09:43:32.019Z,39.59
2023-04-30T09:46:01.851Z,40.46
2023-04-30T09:48:28.879Z,40.89
2023-04-30T09:50:56.004Z,39.50
2023-04-30T09:53:23.965Z,39.45
2023-04-30T09:55:51.806Z,39.19
2023-04-30T09:58:20.021Z,38.11
2023-04-30T10:00:48.638Z,37.30
2023-04-30T10:03:16.399Z,37.39
2023-04-30T10:05:47.725Z,38.44
2023-04-30T10:08:40.370Z,39.53
2023-04-30T10:11:08.583Z,38.07
2023-04-30T10:13:55.980Z,39.56
2023-04-30T10:16:48.081Z,39.35
2023-04-30T10:19:20.890Z,37.58
2023-04-30T10:21:48.481Z,34.10
2023-04-30T10:24:18.589Z,33.58
2023-04-30T10:26:47.549Z,34.53
2023-04-30T10:29:15.613Z,34.01
2023-04-30T10:31:45.476Z,35.39
2023-04-30T10:34:39.847Z,35.96
2023-04-30T10:37:22.742Z,37.92
2023-04-30T10:39:52.296Z,36.53
2023-04-30T10:42:19.601Z,34.12
2023-04-30T10:44:46.483Z,33.65
2023-04-30T10:47:13.270Z,33.03
2023-04-30T10:50:09.798Z,33.31
2023-04-30T10:52:38.542Z,33.30
2023-04-30T10:55:09.590Z,32.63
2023-04-30T10:57:44.098Z,32.12
2023-04-30T11:00:10.823Z,32.97
2023-04-30T11:02:45.373Z,33.81
2023-04-30T11:05:14.846Z,34.12
2023-04-30T11:07:58.322Z,33.48
2023-04-30T11:10:27.665Z,34.34
2023-04-30T11:12:56.171Z,34.39
2023-04-30T11:15:27.746Z,33.10
2023-04-30T11:17:59.717Z,33.27
2023-04-30T11:20:28.063Z,32.86
2023-04-30T11:25:55.086Z,32.41
2023-04-30T11:28:25.614Z,32.42
2023-04-30T11:30:57.999Z,32.22
2023-04-30T11:33:29.494Z,33.37
2023-04-30T11:35:58.032Z,32.82
2023-04-30T11:38:38.107Z,33.74
2023-04-30T11:41:05.636Z,33.15
2023-04-30T11:43:33.977Z,31.85
2023-04-30T11:46:08.686Z,30.88
2023-04-30T11:48:40.644Z,31.90
2023-04-30T11:51:16.591Z,31.55
2023-04-30T11:53:43.874Z,32.34
2023-04-30T11:56:10.732Z,31.31
2023-04-30T11:58:39.442Z,30.69
2023-04-30T12:01:10.378Z,33.00
2023-04-30T12:03:48.106Z,33.28
2023-04-30T12:06:26.598Z,34.27
2023-04-30T12:08:57.779Z,31.89
2023-04-30T12:11:29.392Z,31.20
2023-04-30T12:14:03.745Z,31.52
2023-04-30T12:16:45.757Z,31.95
2023-04-30T12:19:13.374Z,32.10
2023-04-30T12:21:42.549Z,30.80
2023-04-30T12:24:12.076Z,30.66
2023-04-30T12:26:40.590Z,29.94
2023-04-30T12:29:15.384Z,29.80
2023-04-30T12:31:43.380Z,32.76
2023-04-30T12:34:12.912Z,32.25
2023-04-30T12:36:43.060Z,30.52
2023-04-30T12:39:16.311Z,30.37
2023-04-30T12:41:47.889Z,30.31
2023-04-30T12:44:24.964Z,31.84
2023-04-30T12:47:01.123Z,31.99
2023-04-30T12:49:34.443Z,31.20
2023-04-30T12:52:09.777Z,30.39
2023-04-30T12:54:37.709Z,28.80
2023-04-30T12:57:05.401Z,31.48
2023-04-30T12:59:34.310Z,30.18
2023-04-30T13:02:09.202Z,30.04
2023-04-30T13:04:36.811Z,30.04
2023-04-30T13:07:04.806Z,29.93
2023-04-30T13:09:36.827Z,31.47
2023-04-30T13:12:04.886Z,30.98
2023-04-30T13:14:32.779Z,29.81
2023-04-30T13:17:00.151Z,29.54
2023-04-30T13:19:27.124Z,28.99
2023-04-30T13:21:53.841Z,30.71
2023-04-30T13:24:20.660Z,31.82
2023-04-30T13:26:48.461Z,34.20
2023-04-30T13:29:15.241Z,31.70
2023-04-30T13:31:42.712Z,31.83
2023-04-30T13:34:10.314Z,32.11
2023-04-30T13:36:37.149Z,32.71
2023-04-30T13:39:05.136Z,32.57
2023-04-30T13:41:32.301Z,30.96
2023-04-30T13:44:00.374Z,29.80
2023-04-30T13:46:27.308Z,30.77
2023-04-30T13:48:54.260Z,28.59
2023-04-30T13:51:21.296Z,29.10
2023-04-30T13:53:48.291Z,30.85
2023-04-30T13:56:15.709Z,31.96
2023-04-30T13:58:42.554Z,33.20
2023-04-30T14:01:10.649Z,33.47
2023-04-30T14:03:37.832Z,31.99
2023-04-30T14:06:06.250Z,30.31
2023-04-30T14:08:34.003Z,29.03
2023-04-30T14:11:01.480Z,29.51
2023-04-30T14:13:28.338Z,29.02
2023-04-30T14:15:56.267Z,29.48
2023-04-30T14:18:23.531Z,27.31
2023-04-30T14:20:50.428Z,27.81
2023-04-30T14:23:17.382Z,27.35
2023-04-30T14:25:44.753Z,27.67
2023-04-30T14:28:12.212Z,27.65
2023-04-30T14:30:39.169Z,30.69
2023-04-30T14:33:06.246Z,31.05
2023-04-30T14:35:33.826Z,31.25
2023-04-30T14:38:00.701Z,32.23
2023-04-30T14:40:27.503Z,30.73
2023-04-30T14:42:54.283Z,28.90
2023-04-30T14:45:21.069Z,30.34
2023-04-30T14:47:47.900Z,30.97
2023-04-30T14:50:14.731Z,31.98
2023-04-30T14:52:42.391Z,30.73
2023-04-30T14:55:09.446Z,32.85
2023-04-30T14:57:36.750Z,32.83
2023-04-30T15:00:04.624Z,32.92
2023-04-30T15:02:31.571Z,33.71
2023-04-30T15:04:58.557Z,31.61
2023-04-30T15:07:25.420Z,30.01
2023-04-30T15:09:53.012Z,30.35
2023-04-30T15:12:20.399Z,29.28
2023-04-30T15:14:47.238Z,29.01
2023-04-30T15:17:14.194Z,28.60
2023-04-30T15:19:41.027Z,30.45
2023-04-30T15:22:08.159Z,29.60
2023-04-30T15:24:35.044Z,28.72
2023-04-30T15:27:02.257Z,30.07
2023-04-30T15:29:29.053Z,30.22
2023-04-30T15:31:56.077Z,30.27
2023-04-30T15:34:23.232Z,31.85
2023-04-30T15:36:50.365Z,31.39
2023-04-30T15:39:18.066Z,32.18
2023-04-30T15:41:45.220Z,32.07
2023-04-30T15:44:11.956Z,31.91
2023-04-30T15:46:38.786Z,31.80
2023-04-30T15:49:05.600Z,32.92
2023-04-30T15:51:33.475Z,31.83
2023-04-30T15:54:00.248Z,31.01
2023-04-30T15:56:27.231Z,31.97
2023-04-30T15:58:54.588Z,32.57
2023-04-30T16:01:23.554Z,33.84
2023-04-30T16:03:50.590Z,33.53
2023-04-30T16:06:18.072Z,33.05
2023-04-30T16:08:46.244Z,32.66
2023-04-30T16:11:13.123Z,32.20
2023-04-30T16:13:39.906Z,32.99
2023-04-30T16:16:08.948Z,34.48
2023-04-30T16:18:35.762Z,33.63
2023-04-30T16:21:02.751Z,33.48
2023-04-30T16:23:29.670Z,31.53
2023-04-30T16:25:56.655Z,31.50
2023-04-30T16:28:23.791Z,29.64
2023-04-30T16:30:51.050Z,30.65
2023-04-30T16:33:17.937Z,31.31
2023-04-30T16:35:44.946Z,31.96
2023-04-30T16:38:11.794Z,30.94
2023-04-30T16:40:38.738Z,31.12
2023-04-30T16:43:08.522Z,30.44
2023-04-30T16:45:35.968Z,29.50
2023-04-30T16:48:03.029Z,30.78
2023-04-30T16:50:30.101Z,29.30
2023-04-30T16:52:57.041Z,29.76
2023-04-30T16:55:23.882Z,30.58
2023-04-30T16:57:50.953Z,31.12
2023-04-30T17:00:18.961Z,30.32
2023-04-30T17:02:48.902Z,31.31
2023-04-30T17:05:16.476Z,31.65
2023-04-30T17:07:45.971Z,31.91
2023-04-30T17:10:13.555Z,31.53
2023-04-30T17:12:40.402Z,31.88
2023-04-30T17:15:07.736Z,30.11
2023-04-30T17:17:34.480Z,30.65
2023-04-30T17:20:01.487Z,30.81
2023-04-30T17:22:28.368Z,30.82
2023-04-30T17:24:55.116Z,30.30
2023-04-30T17:27:21.892Z,29.76
2023-04-30T17:29:48.917Z,30.69
2023-04-30T17:32:17.866Z,31.74
2023-04-30T17:34:45.066Z,31.43
2023-04-30T17:37:12.215Z,31.95
2023-04-30T17:39:38.926Z,34.16
2023-04-30T17:42:05.757Z,35.17
2023-04-30T17:44:33.886Z,36.85
2023-04-30T17:47:00.631Z,37.40
2023-04-30T17:49:28.190Z,36.75
2023-04-30T17:51:54.939Z,38.06
2023-04-30T17:54:21.708Z,39.40
2023-04-30T17:56:48.827Z,40.15
2023-04-30T17:59:16.213Z,40.40
2023-04-30T18:01:43.065Z,41.15
2023-04-30T18:04:10.258Z,41.26
2023-04-30T18:06:37.189Z,41.79
2023-04-30T18:09:04.544Z,41.99
2023-04-30T18:11:31.348Z,42.10
2023-04-30T18:13:58.075Z,42.51
2023-04-30T18:16:25.028Z,43.03
2023-04-30T18:18:51.866Z,43.45
2023-04-30T18:21:18.887Z,43.62
2023-04-30T18:23:45.752Z,43.82
2023-04-30T18:26:12.502Z,44.34
2023-04-30T18:28:39.461Z,44.15
2023-04-30T18:31:06.339Z,44.59
2023-04-30T18:33:33.404Z,45.13
2023-04-30T18:36:05.359Z,45.25
2023-04-30T18:38:32.669Z,45.69
2023-04-30T18:41:00.350Z,45.64
2023-04-30T18:43:27.147Z,46.00
2023-04-30T18:45:53.911Z,46.11
2023-04-30T18:48:23.151Z,46.31
2023-04-30T18:50:50.303Z,46.21
2023-04-30T18:53:17.936Z,46.22
2023-04-30T18:55:45.443Z,46.68
2023-04-30T18:58:12.468Z,46.86
2023-04-30T19:00:43.391Z,46.74
2023-04-30T19:03:10.722Z,47.01
2023-04-30T19:05:38.016Z,46.79
2023-04-30T19:08:04.890Z,47.49
2023-04-30T19:10:31.695Z,47.69
2023-04-30T19:12:58.736Z,47.65
2023-04-30T19:15:25.947Z,47.75
2023-04-30T19:17:52.794Z,48.24
2023-04-30T19:20:19.570Z,48.54
2023-04-30T19:22:47.949Z,48.55
2023-04-30T19:25:15.963Z,48.73
2023-04-30T19:27:44.480Z,49.11
2023-04-30T19:30:12.238Z,49.23
2023-04-30T19:32:39.097Z,49.10
2023-04-30T19:35:06.536Z,49.42
2023-04-30T19:37:33.333Z,49.44
2023-04-30T19:40:00.014Z,49.80
2023-04-30T19:42:26.919Z,50.00
2023-04-30T19:44:54.491Z,50.34
2023-04-30T19:47:23.032Z,50.72
2023-04-30T19:49:49.763Z,50.57
2023-04-30T19:52:16.566Z,51.02
2023-04-30T19:54:48.696Z,51.10
2023-04-30T19:57:15.601Z,51.14
2023-04-30T19:59:42.337Z,52.00
2023-04-30T20:02:09.780Z,51.61
2023-04-30T20:04:37.349Z,51.28
2023-04-30T20:07:04.752Z,50.87
2023-04-30T20:09:31.559Z,50.96
2023-04-30T20:11:58.421Z,51.27
2023-04-30T20:14:25.345Z,51.17
2023-04-30T20:16:54.574Z,51.49
2023-04-30T20:19:22.370Z,51.30
2023-04-30T20:21:49.810Z,51.42
2023-04-30T20:24:16.700Z,51.46
2023-04-30T20:26:43.824Z,51.54
2023-04-30T20:29:10.989Z,51.97
2023-04-30T20:31:37.961Z,52.09
2023-04-30T20:34:05.402Z,52.34
2023-04-30T20:36:32.711Z,52.73
2023-04-30T20:38:59.534Z,52.73
2023-04-30T20:41:26.865Z,53.44
2023-04-30T20:43:54.324Z,53.53
2023-04-30T20:46:24.140Z,53.77
2023-04-30T20:48:51.609Z,53.74
2023-04-30T20:51:18.802Z,53.71
2023-04-30T20:53:45.764Z,54.33
2023-04-30T20:56:12.671Z,54.24
2023-04-30T20:58:39.588Z,53.97
2023-04-30T21:01:07.681Z,54.55
2023-04-30T21:03:34.671Z,54.68
2023-04-30T21:06:01.535Z,54.60
2023-04-30T21:08:28.362Z,55.07
2023-04-30T21:10:55.260Z,55.38
2023-04-30T21:13:22.265Z,55.88
2023-04-30T21:15:53.580Z,55.87
2023-04-30T21:18:20.422Z,56.30
2023-04-30T21:20:47.480Z,56.64
2023-04-30T21:23:14.849Z,56.52
2023-04-30T21:25:41.571Z,56.57
2023-04-30T21:28:08.320Z,57.16
2023-04-30T21:30:36.804Z,57.49
2023-04-30T21:33:04.984Z,57.31
2023-04-30T21:35:33.264Z,57.96
2023-04-30T21:38:00.181Z,57.75
2023-04-30T21:40:27.134Z,57.79
2023-04-30T21:42:54.192Z,57.71
2023-04-30T21:45:21.251Z,58.56
2023-04-30T21:47:48.858Z,58.26
2023-04-30T21:50:15.695Z,58.46
2023-04-30T21:52:42.602Z,58.56
2023-04-30T21:55:09.951Z,58.55
2023-04-30T21:57:36.713Z,58.32
2023-04-30T22:00:06.909Z,58.49
2023-04-30T22:02:33.702Z,59.10
2023-04-30T22:05:01.409Z,59.11
2023-04-30T22:07:28.379Z,58.48
2023-04-30T22:09:55.368Z,59.04
2023-04-30T22:12:25.252Z,59.54
2023-04-30T22:14:55.638Z,59.86
2023-04-30T22:17:22.985Z,59.43
2023-04-30T22:19:49.818Z,59.16
2023-04-30T22:22:16.868Z,59.48
2023-04-30T22:24:43.719Z,60.09
2023-04-30T22:27:10.467Z,60.25
2023-04-30T22:29:37.292Z,60.73
2023-04-30T22:32:04.962Z,60.93
2023-04-30T22:34:39.084Z,60.53
2023-04-30T22:37:06.590Z,61.34
2023-04-30T22:39:33.595Z,60.75
2023-04-30T22:42:00.474Z,61.57
2023-04-30T22:44:27.401Z,61.41
2023-04-30T22:46:57.113Z,62.24
2023-04-30T22:49:31.711Z,61.54
2023-04-30T22:51:59.123Z,62.60
2023-04-30T22:54:26.066Z,61.94
2023-04-30T22:56:52.813Z,61.75
2023-04-30T22:59:19.544Z,62.45
2023-04-30T23:01:46.313Z,63.19
2023-04-30T23:04:13.937Z,63.34
2023-04-30T23:06:41.722Z,62.92
2023-04-30T23:09:08.992Z,63.84
2023-04-30T23:11:35.921Z,64.61
2023-04-30T23:14:02.765Z,64.35
2023-04-30T23:16:29.528Z,64.21
2023-04-30T23:18:56.934Z,63.70
2023-04-30T23:21:23.664Z,64.91
2023-04-30T23:23:50.604Z,64.85
2023-04-30T23:26:17.542Z,65.36
2023-04-30T23:28:44.298Z,65.58
2023-04-30T23:31:11.062Z,65.43
2023-04-30T23:33:38.344Z,65.59
2023-04-30T23:36:05.452Z,66.04
2023-04-30T23:38:32.364Z,65.82
2023-04-30T23:40:59.437Z,67.25
2023-04-30T23:43:26.128Z,67.02
2023-04-30T23:45:52.907Z,67.77
2023-04-30T23:48:19.669Z,68.35
2023-04-30T23:50:47.438Z,67.27
2023-04-30T23:53:17.362Z,68.00
2023-04-30T23:55:44.272Z,66.76
2023-04-30T23:58:11.106Z,66.59
